Pagina principale
METAR-TAF:

METAR-TAF

Aeroporti :

San Gallo, Svizzera

latitudine: 47-29-06N, longitudine: 009-33-43E, altezza: 398 m

Osservazione

Il bollettino è stato emesso 29 minuti fa, alle 17:50 UTC
Vento 2 kt da sud-est
Temperature 9°C
Umidità 87%
Pressione 1015 hPa
Visibilità 10 km o più
nessuna nube inferiore a 1500 m e nessun cumulonembo

METAR: LSZR 241750Z 13002KT CAVOK 09/07 Q1015 NOSIG RMK N

Ora: 19:19 (18:19 UTC)

Previsione

Il bollettino è stato emesso 3 ore e 54 minuti fa, alle 14:25 UTC
Previsione valida dal 24 alle 15 UTC al 24 alle 24 UTC
Vento 4 kt da direzioni variabili
Visibilità 10 km o più
Poco nuvoloso ad un'altezza di 4000 ft
Evoluzione graduale
dal 24 alle 15 UTC al 24 alle 18 UTC
Visibilità 10 km o più
nessuna nube inferiore a 1500 m e nessun cumulonembo

TAF: LSZR 241425Z 2415/2424 VRB04KT 9999 FEW040 BECMG 2415/2418 CAVOK

Osservazioni e previsioni meteorologiche di più di 4000 aeroporti (messaggi METAR e TAF).

Le stazioni disponibili sono rappresentate dai dischi gialli e rossi sulla carta.

Puntare il mouse per vedere il nome della stazione.

Clicca sopra per visualizzare le osservazioni e previsioni meteorologiche.

Per cambiare la mappa : fare clic sui pulsanti verdi con una croce nera per ingrandire, il pulsante verde con un trattino per diminuire, o sulla freccia verde per le mappe adiacenti.


METAR-TAF: